Seward, AK

2:28 PM AKDT on July 04, 2015 (GMT -0800)
Oak Street Forest Acres Seward Alaska | | Change Station
CLOSE
Current Station
Personal Weather Station
Location: Seward, AK
Elevation: 144 ft
Nearby Weather Stations

Elev 144 ft 60.14 °N, 149.44 °W | Updated 55 seconds ago

Overcast
Overcast
55.9 °F
Feels Like 55.9 °F
N
0.0
Wind Variable Wind from SW

Today
High -- | Low -- °F
--% Chance of Precip.
Yesterday
High -- | Low -- °F
Precip. -- in
4:42 AM 11:21 PM
Waning Gibbous, 90% visible
Pressure 30.21 in
Visibility 10.0 miles
Clouds Mostly Cloudy 4200 ft
Overcast 5000 ft
Dew Point 52 °F
Humidity 87%
Rainfall 0.00 in
Snow Depth Not available.
UV 15.0 out of 12
Pollen Not available.
Air Quality Not available.
Flu Activity Not available.
METAR PAWD 042153Z AUTO 17005KT 10SM BKN042 OVC050 14/10 A3021 RMK AO2 RAE00 SLP228 P0000 T01390100 TSNO

More Conditions Fewer Conditions

Pressure 30.21 in
Visibility 10.0 miles
Clouds Mostly Cloudy 4200 ft
Overcast 5000 ft
Dew Point 52 °F
Humidity 87%
Rainfall 0.00 in
Snow Depth Not available.
UV 15.0 out of 12
Pollen Not available.
Air Quality Not available.
Flu Activity Not available.
METAR PAWD 042153Z AUTO 17005KT 10SM BKN042 OVC050 14/10 A3021 RMK AO2 RAE00 SLP228 P0000 T01390100 TSNO

More Conditions Fewer Conditions

10-Day Weather Forecast

×

Almanac

Astronomy

Jul. 04, 2015 Rise Set
Actual Time
Civil Twilight
Nautical Twilight
Astronomical Twilight
Moon
Length of Visible Light
Length of Day
Tomorrow will be .
, % of the Moon is Illuminated

Today's Extremes

State Highs State Lows

Community

WunderPhotos

Upload Photos

1,835,105 photos uploaded!

WunderBlogs® & News

Nearby

Air Quality

  Air Quality AQ Index Pollutant
Not available.

Snow Depth

Station Depth Elevation

Earthquake Activity

City Distance Mag. Time & Date
Minimum magnitude displayed is 2.5.

Coastal Water Temperatures

Place Temperature

Stations

Nearby Weather Stations

Station Location Temp. Windchill Dew Point Humidity Wind Precip. Elev Updated Type